sensor_id;sensor_type;location;lat;lon;timestamp;temperature;humidity
19493;DHT22;9887;54.366;10.958;2022-09-19T00:01:53;13.30;99.90
19493;DHT22;9887;54.366;10.958;2022-09-19T00:04:23;13.30;99.90
19493;DHT22;9887;54.366;10.958;2022-09-19T00:06:52;13.30;99.90
19493;DHT22;9887;54.366;10.958;2022-09-19T00:09:23;13.30;99.90
19493;DHT22;9887;54.366;10.958;2022-09-19T00:11:51;13.20;99.90
19493;DHT22;9887;54.366;10.958;2022-09-19T00:14:23;13.30;99.90
19493;DHT22;9887;54.366;10.958;2022-09-19T00:16:54;13.30;99.90
19493;DHT22;9887;54.366;10.958;2022-09-19T00:19:23;13.20;99.90
19493;DHT22;9887;54.366;10.958;2022-09-19T00:21:54;13.20;99.90
19493;DHT22;9887;54.366;10.958;2022-09-19T00:24:22;13.20;99.90
19493;DHT22;9887;54.366;10.958;2022-09-19T00:27:09;13.20;99.90
19493;DHT22;9887;54.366;10.958;2022-09-19T00:29:40;13.20;99.90
19493;DHT22;9887;54.366;10.958;2022-09-19T00:32:09;13.20;99.90
19493;DHT22;9887;54.366;10.958;2022-09-19T00:34:40;13.20;99.90
19493;DHT22;9887;54.366;10.958;2022-09-19T00:37:09;13.30;99.90
19493;DHT22;9887;54.366;10.958;2022-09-19T00:39:37;13.20;99.90
19493;DHT22;9887;54.366;10.958;2022-09-19T00:42:08;13.20;99.90
19493;DHT22;9887;54.366;10.958;2022-09-19T00:44:54;13.20;99.90
19493;DHT22;9887;54.366;10.958;2022-09-19T00:47:24;13.20;99.90
19493;DHT22;9887;54.366;10.958;2022-09-19T00:49:56;13.20;99.90
19493;DHT22;9887;54.366;10.958;2022-09-19T00:52:31;13.10;99.90
19493;DHT22;9887;54.366;10.958;2022-09-19T00:55:01;13.10;99.90
19493;DHT22;9887;54.366;10.958;2022-09-19T00:57:38;13.20;99.90
19493;DHT22;9887;54.366;10.958;2022-09-19T01:00:09;13.10;99.90
19493;DHT22;9887;54.366;10.958;2022-09-19T01:02:37;13.10;99.90
19493;DHT22;9887;54.366;10.958;2022-09-19T01:05:06;13.20;99.90
19493;DHT22;9887;54.366;10.958;2022-09-19T01:07:48;13.20;99.90
19493;DHT22;9887;54.366;10.958;2022-09-19T01:10:32;13.10;99.90
19493;DHT22;9887;54.366;10.958;2022-09-19T01:13:09;13.20;99.90
19493;DHT22;9887;54.366;10.958;2022-09-19T01:15:47;13.10;99.90
19493;DHT22;9887;54.366;10.958;2022-09-19T01:18:21;13.10;99.90
19493;DHT22;9887;54.366;10.958;2022-09-19T01:21:02;13.10;99.90
19493;DHT22;9887;54.366;10.958;2022-09-19T01:24:14;13.30;99.90
19493;DHT22;9887;54.366;10.958;2022-09-19T01:27:08;13.30;99.90
19493;DHT22;9887;54.366;10.958;2022-09-19T01:29:41;13.30;99.90
19493;DHT22;9887;54.366;10.958;2022-09-19T01:32:15;13.30;99.90
19493;DHT22;9887;54.366;10.958;2022-09-19T01:34:48;13.30;99.90
19493;DHT22;9887;54.366;10.958;2022-09-19T01:37:20;13.40;99.90
19493;DHT22;9887;54.366;10.958;2022-09-19T01:39:50;13.40;99.90
19493;DHT22;9887;54.366;10.958;2022-09-19T01:42:20;13.50;99.90
19493;DHT22;9887;54.366;10.958;2022-09-19T01:44:55;13.30;99.90
19493;DHT22;9887;54.366;10.958;2022-09-19T01:47:29;13.40;99.90
19493;DHT22;9887;54.366;10.958;2022-09-19T01:50:05;13.40;99.90
19493;DHT22;9887;54.366;10.958;2022-09-19T01:52:47;13.40;99.90
19493;DHT22;9887;54.366;10.958;2022-09-19T01:55:34;13.40;99.90
19493;DHT22;9887;54.366;10.958;2022-09-19T01:58:11;13.40;99.90
19493;DHT22;9887;54.366;10.958;2022-09-19T02:00:45;13.40;99.90
19493;DHT22;9887;54.366;10.958;2022-09-19T02:03:20;13.50;99.90
19493;DHT22;9887;54.366;10.958;2022-09-19T02:06:00;13.40;99.90
19493;DHT22;9887;54.366;10.958;2022-09-19T02:08:40;13.40;99.90
19493;DHT22;9887;54.366;10.958;2022-09-19T02:11:14;13.40;99.90
19493;DHT22;9887;54.366;10.958;2022-09-19T02:13:46;13.40;99.90
19493;DHT22;9887;54.366;10.958;2022-09-19T02:16:20;13.30;99.90
19493;DHT22;9887;54.366;10.958;2022-09-19T02:18:53;13.30;99.90
19493;DHT22;9887;54.366;10.958;2022-09-19T02:21:31;13.30;99.90
19493;DHT22;9887;54.366;10.958;2022-09-19T02:24:05;13.40;99.90
19493;DHT22;9887;54.366;10.958;2022-09-19T02:26:38;13.30;99.90
19493;DHT22;9887;54.366;10.958;2022-09-19T02:29:11;13.30;99.90
19493;DHT22;9887;54.366;10.958;2022-09-19T02:31:42;13.30;99.90
19493;DHT22;9887;54.366;10.958;2022-09-19T02:34:10;13.20;99.90
19493;DHT22;9887;54.366;10.958;2022-09-19T02:36:42;13.20;99.90
19493;DHT22;9887;54.366;10.958;2022-09-19T02:39:19;13.10;99.90
19493;DHT22;9887;54.366;10.958;2022-09-19T02:42:02;13.10;99.90
19493;DHT22;9887;54.366;10.958;2022-09-19T02:44:35;13.10;99.90
19493;DHT22;9887;54.366;10.958;2022-09-19T02:47:11;13.10;99.90
19493;DHT22;9887;54.366;10.958;2022-09-19T02:49:46;13.10;99.90
19493;DHT22;9887;54.366;10.958;2022-09-19T02:52:18;13.10;99.90
19493;DHT22;9887;54.366;10.958;2022-09-19T02:54:51;13.00;99.90
19493;DHT22;9887;54.366;10.958;2022-09-19T02:57:22;13.10;99.90
19493;DHT22;9887;54.366;10.958;2022-09-19T02:59:54;13.10;99.90
19493;DHT22;9887;54.366;10.958;2022-09-19T03:02:29;13.10;99.90
19493;DHT22;9887;54.366;10.958;2022-09-19T03:05:01;13.10;99.90
19493;DHT22;9887;54.366;10.958;2022-09-19T03:07:35;13.20;99.90
19493;DHT22;9887;54.366;10.958;2022-09-19T03:10:12;13.20;99.90
19493;DHT22;9887;54.366;10.958;2022-09-19T03:13:00;13.20;99.90
19493;DHT22;9887;54.366;10.958;2022-09-19T03:15:31;13.20;99.90
19493;DHT22;9887;54.366;10.958;2022-09-19T03:18:07;13.20;99.90
19493;DHT22;9887;54.366;10.958;2022-09-19T03:20:38;13.30;99.90
19493;DHT22;9887;54.366;10.958;2022-09-19T03:23:08;13.20;99.90
19493;DHT22;9887;54.366;10.958;2022-09-19T03:25:38;13.30;99.90
19493;DHT22;9887;54.366;10.958;2022-09-19T03:28:06;13.20;99.90
19493;DHT22;9887;54.366;10.958;2022-09-19T03:30:35;13.30;99.90
19493;DHT22;9887;54.366;10.958;2022-09-19T03:33:05;13.20;99.90
19493;DHT22;9887;54.366;10.958;2022-09-19T03:35:34;13.20;99.90
19493;DHT22;9887;54.366;10.958;2022-09-19T03:38:03;13.20;99.90
19493;DHT22;9887;54.366;10.958;2022-09-19T03:40:31;13.20;99.90
19493;DHT22;9887;54.366;10.958;2022-09-19T03:42:59;13.20;99.90
19493;DHT22;9887;54.366;10.958;2022-09-19T03:45:27;13.20;99.90
19493;DHT22;9887;54.366;10.958;2022-09-19T03:47:56;13.20;99.90
19493;DHT22;9887;54.366;10.958;2022-09-19T03:50:27;13.20;99.90
19493;DHT22;9887;54.366;10.958;2022-09-19T03:53:04;13.20;99.90
19493;DHT22;9887;54.366;10.958;2022-09-19T03:55:35;13.20;99.90
19493;DHT22;9887;54.366;10.958;2022-09-19T03:58:07;13.30;99.90
19493;DHT22;9887;54.366;10.958;2022-09-19T04:00:36;13.20;99.90
19493;DHT22;9887;54.366;10.958;2022-09-19T04:03:05;13.20;99.90
19493;DHT22;9887;54.366;10.958;2022-09-19T04:05:34;13.20;99.90
19493;DHT22;9887;54.366;10.958;2022-09-19T04:08:02;13.20;99.90
19493;DHT22;9887;54.366;10.958;2022-09-19T04:10:30;13.30;99.90
19493;DHT22;9887;54.366;10.958;2022-09-19T04:12:58;13.20;99.90
19493;DHT22;9887;54.366;10.958;2022-09-19T04:15:26;13.20;99.90
19493;DHT22;9887;54.366;10.958;2022-09-19T04:17:55;13.20;99.90
19493;DHT22;9887;54.366;10.958;2022-09-19T04:20:23;13.30;99.90
19493;DHT22;9887;54.366;10.958;2022-09-19T04:23:01;13.20;99.90
19493;DHT22;9887;54.366;10.958;2022-09-19T04:25:47;13.20;99.90
19493;DHT22;9887;54.366;10.958;2022-09-19T04:28:32;13.30;99.90
19493;DHT22;9887;54.366;10.958;2022-09-19T04:31:01;13.20;99.90
19493;DHT22;9887;54.366;10.958;2022-09-19T04:33:31;13.20;99.90
19493;DHT22;9887;54.366;10.958;2022-09-19T04:35:59;13.20;99.90
19493;DHT22;9887;54.366;10.958;2022-09-19T04:38:31;13.30;99.90
19493;DHT22;9887;54.366;10.958;2022-09-19T04:41:01;13.20;99.90
19493;DHT22;9887;54.366;10.958;2022-09-19T04:43:30;13.20;99.90
19493;DHT22;9887;54.366;10.958;2022-09-19T04:46:17;13.20;99.90
19493;DHT22;9887;54.366;10.958;2022-09-19T04:48:49;13.20;99.90
19493;DHT22;9887;54.366;10.958;2022-09-19T04:51:24;13.10;99.90
19493;DHT22;9887;54.366;10.958;2022-09-19T04:53:53;13.20;99.90
19493;DHT22;9887;54.366;10.958;2022-09-19T04:56:21;13.20;99.90
19493;DHT22;9887;54.366;10.958;2022-09-19T04:58:51;13.20;99.90
19493;DHT22;9887;54.366;10.958;2022-09-19T05:01:20;13.30;99.90
19493;DHT22;9887;54.366;10.958;2022-09-19T05:03:50;13.20;99.90
19493;DHT22;9887;54.366;10.958;2022-09-19T05:06:18;13.20;99.90
19493;DHT22;9887;54.366;10.958;2022-09-19T05:08:46;13.30;99.90
19493;DHT22;9887;54.366;10.958;2022-09-19T05:11:28;13.30;99.90
19493;DHT22;9887;54.366;10.958;2022-09-19T05:13:55;13.20;99.90
19493;DHT22;9887;54.366;10.958;2022-09-19T05:16:29;13.30;99.90
19493;DHT22;9887;54.366;10.958;2022-09-19T05:18:59;13.30;99.90
19493;DHT22;9887;54.366;10.958;2022-09-19T05:21:28;13.20;99.90
19493;DHT22;9887;54.366;10.958;2022-09-19T05:23:58;13.20;99.90
19493;DHT22;9887;54.366;10.958;2022-09-19T05:26:28;13.20;99.90
19493;DHT22;9887;54.366;10.958;2022-09-19T05:29:00;13.20;99.90
19493;DHT22;9887;54.366;10.958;2022-09-19T05:31:38;13.20;99.90
19493;DHT22;9887;54.366;10.958;2022-09-19T05:34:20;13.30;99.90
19493;DHT22;9887;54.366;10.958;2022-09-19T05:36:49;13.30;99.90
19493;DHT22;9887;54.366;10.958;2022-09-19T05:39:40;13.30;99.90
19493;DHT22;9887;54.366;10.958;2022-09-19T05:42:29;13.40;99.90
19493;DHT22;9887;54.366;10.958;2022-09-19T05:44:57;13.40;99.90
19493;DHT22;9887;54.366;10.958;2022-09-19T05:47:25;13.40;99.90
19493;DHT22;9887;54.366;10.958;2022-09-19T05:49:53;13.50;99.90
19493;DHT22;9887;54.366;10.958;2022-09-19T05:52:21;13.50;99.90
19493;DHT22;9887;54.366;10.958;2022-09-19T05:55:09;13.50;99.90
19493;DHT22;9887;54.366;10.958;2022-09-19T05:57:54;13.40;99.90
19493;DHT22;9887;54.366;10.958;2022-09-19T06:00:24;13.50;99.90
19493;DHT22;9887;54.366;10.958;2022-09-19T06:02:54;13.50;99.90
19493;DHT22;9887;54.366;10.958;2022-09-19T06:05:23;13.50;99.90
19493;DHT22;9887;54.366;10.958;2022-09-19T06:07:51;13.60;99.90
19493;DHT22;9887;54.366;10.958;2022-09-19T06:10:23;13.60;99.90
19493;DHT22;9887;54.366;10.958;2022-09-19T06:12:52;13.60;99.90
19493;DHT22;9887;54.366;10.958;2022-09-19T06:15:21;13.60;99.90
19493;DHT22;9887;54.366;10.958;2022-09-19T06:17:53;13.60;99.90
19493;DHT22;9887;54.366;10.958;2022-09-19T06:20:47;13.60;99.90
19493;DHT22;9887;54.366;10.958;2022-09-19T06:23:23;13.70;99.90
19493;DHT22;9887;54.366;10.958;2022-09-19T06:25:52;13.60;99.90
19493;DHT22;9887;54.366;10.958;2022-09-19T06:28:21;13.70;99.90
19493;DHT22;9887;54.366;10.958;2022-09-19T06:30:59;13.60;99.90
19493;DHT22;9887;54.366;10.958;2022-09-19T06:33:37;13.70;99.90
19493;DHT22;9887;54.366;10.958;2022-09-19T06:36:14;13.90;99.90
19493;DHT22;9887;54.366;10.958;2022-09-19T06:38:42;13.80;99.90
19493;DHT22;9887;54.366;10.958;2022-09-19T06:41:33;13.80;99.90
19493;DHT22;9887;54.366;10.958;2022-09-19T06:44:32;13.90;99.90
19493;DHT22;9887;54.366;10.958;2022-09-19T06:47:03;14.10;99.90
19493;DHT22;9887;54.366;10.958;2022-09-19T06:49:51;14.10;99.90
19493;DHT22;9887;54.366;10.958;2022-09-19T06:52:24;14.20;99.90
19493;DHT22;9887;54.366;10.958;2022-09-19T06:54:54;14.20;99.90
19493;DHT22;9887;54.366;10.958;2022-09-19T06:57:22;14.30;99.90
19493;DHT22;9887;54.366;10.958;2022-09-19T06:59:51;14.20;99.90
19493;DHT22;9887;54.366;10.958;2022-09-19T07:02:19;14.20;99.90
19493;DHT22;9887;54.366;10.958;2022-09-19T07:04:49;14.30;99.90
19493;DHT22;9887;54.366;10.958;2022-09-19T07:07:35;14.20;99.90
19493;DHT22;9887;54.366;10.958;2022-09-19T07:10:04;14.20;99.90
19493;DHT22;9887;54.366;10.958;2022-09-19T07:12:32;14.30;99.90
19493;DHT22;9887;54.366;10.958;2022-09-19T07:15:05;14.30;99.90
19493;DHT22;9887;54.366;10.958;2022-09-19T07:17:33;14.40;99.90
19493;DHT22;9887;54.366;10.958;2022-09-19T07:20:01;14.50;99.90
19493;DHT22;9887;54.366;10.958;2022-09-19T07:22:59;14.30;99.90
19493;DHT22;9887;54.366;10.958;2022-09-19T07:25:54;14.30;99.90
19493;DHT22;9887;54.366;10.958;2022-09-19T07:28:23;14.30;99.90
19493;DHT22;9887;54.366;10.958;2022-09-19T07:30:57;14.30;99.90
19493;DHT22;9887;54.366;10.958;2022-09-19T07:33:25;14.40;99.90
19493;DHT22;9887;54.366;10.958;2022-09-19T07:35:55;14.40;99.90
19493;DHT22;9887;54.366;10.958;2022-09-19T07:38:24;14.50;99.90
19493;DHT22;9887;54.366;10.958;2022-09-19T07:41:23;14.60;99.90
19493;DHT22;9887;54.366;10.958;2022-09-19T07:44:10;14.70;99.90
19493;DHT22;9887;54.366;10.958;2022-09-19T07:46:41;14.70;99.90
19493;DHT22;9887;54.366;10.958;2022-09-19T07:49:55;14.70;99.90
19493;DHT22;9887;54.366;10.958;2022-09-19T07:52:32;14.70;99.90
19493;DHT22;9887;54.366;10.958;2022-09-19T07:54:59;14.80;99.90
19493;DHT22;9887;54.366;10.958;2022-09-19T07:57:29;14.80;99.90
19493;DHT22;9887;54.366;10.958;2022-09-19T07:59:57;14.90;99.90
19493;DHT22;9887;54.366;10.958;2022-09-19T08:02:26;14.90;99.90
19493;DHT22;9887;54.366;10.958;2022-09-19T08:04:54;15.00;99.90
19493;DHT22;9887;54.366;10.958;2022-09-19T08:07:22;15.00;99.90
19493;DHT22;9887;54.366;10.958;2022-09-19T08:09:50;15.00;99.90
19493;DHT22;9887;54.366;10.958;2022-09-19T08:12:22;15.00;99.90
19493;DHT22;9887;54.366;10.958;2022-09-19T08:14:59;15.10;99.90
19493;DHT22;9887;54.366;10.958;2022-09-19T08:17:29;15.10;99.90
19493;DHT22;9887;54.366;10.958;2022-09-19T08:19:57;15.10;99.90
19493;DHT22;9887;54.366;10.958;2022-09-19T08:22:25;15.20;99.90
19493;DHT22;9887;54.366;10.958;2022-09-19T08:25:01;15.20;99.90
19493;DHT22;9887;54.366;10.958;2022-09-19T08:27:30;15.30;99.90
19493;DHT22;9887;54.366;10.958;2022-09-19T08:29:58;15.30;99.90
19493;DHT22;9887;54.366;10.958;2022-09-19T08:32:26;15.50;99.90
19493;DHT22;9887;54.366;10.958;2022-09-19T08:34:56;15.50;99.90
19493;DHT22;9887;54.366;10.958;2022-09-19T08:37:25;15.60;99.90
19493;DHT22;9887;54.366;10.958;2022-09-19T08:39:53;15.70;99.90
19493;DHT22;9887;54.366;10.958;2022-09-19T08:42:49;15.70;99.90
19493;DHT22;9887;54.366;10.958;2022-09-19T08:45:24;15.80;99.90
19493;DHT22;9887;54.366;10.958;2022-09-19T08:47:55;15.90;99.90
19493;DHT22;9887;54.366;10.958;2022-09-19T08:50:27;16.00;99.90
19493;DHT22;9887;54.366;10.958;2022-09-19T08:53:02;16.10;99.90
19493;DHT22;9887;54.366;10.958;2022-09-19T08:55:34;16.20;99.90
19493;DHT22;9887;54.366;10.958;2022-09-19T08:58:14;16.30;99.90
19493;DHT22;9887;54.366;10.958;2022-09-19T09:01:04;16.40;99.90
19493;DHT22;9887;54.366;10.958;2022-09-19T09:03:45;16.50;99.90
19493;DHT22;9887;54.366;10.958;2022-09-19T09:06:25;16.60;99.90
19493;DHT22;9887;54.366;10.958;2022-09-19T09:09:03;16.80;99.90
19493;DHT22;9887;54.366;10.958;2022-09-19T09:11:47;16.80;99.90
19493;DHT22;9887;54.366;10.958;2022-09-19T09:14:26;16.80;99.90
19493;DHT22;9887;54.366;10.958;2022-09-19T09:17:10;16.90;99.90
19493;DHT22;9887;54.366;10.958;2022-09-19T09:22:43;17.00;99.90
19493;DHT22;9887;54.366;10.958;2022-09-19T09:25:38;17.10;99.90
19493;DHT22;9887;54.366;10.958;2022-09-19T09:28:11;17.10;99.90
19493;DHT22;9887;54.366;10.958;2022-09-19T09:31:00;17.20;99.90
19493;DHT22;9887;54.366;10.958;2022-09-19T09:33:36;17.20;99.90
19493;DHT22;9887;54.366;10.958;2022-09-19T09:36:16;17.20;99.90
19493;DHT22;9887;54.366;10.958;2022-09-19T09:38:52;17.20;99.90
19493;DHT22;9887;54.366;10.958;2022-09-19T09:41:31;17.30;99.90
19493;DHT22;9887;54.366;10.958;2022-09-19T09:44:35;17.40;99.90
19493;DHT22;9887;54.366;10.958;2022-09-19T09:47:16;17.40;99.90
19493;DHT22;9887;54.366;10.958;2022-09-19T09:49:46;17.50;99.90
19493;DHT22;9887;54.366;10.958;2022-09-19T09:52:26;17.60;99.90
19493;DHT22;9887;54.366;10.958;2022-09-19T09:55:15;17.60;99.90
19493;DHT22;9887;54.366;10.958;2022-09-19T09:58:13;17.80;99.90
19493;DHT22;9887;54.366;10.958;2022-09-19T10:00:52;17.80;99.90
19493;DHT22;9887;54.366;10.958;2022-09-19T10:03:45;17.90;99.90
19493;DHT22;9887;54.366;10.958;2022-09-19T10:06:46;18.00;99.90
19493;DHT22;9887;54.366;10.958;2022-09-19T10:09:22;18.00;99.90
19493;DHT22;9887;54.366;10.958;2022-09-19T10:11:58;18.10;99.90
19493;DHT22;9887;54.366;10.958;2022-09-19T10:14:47;18.00;99.90
19493;DHT22;9887;54.366;10.958;2022-09-19T10:17:38;18.10;99.90
19493;DHT22;9887;54.366;10.958;2022-09-19T10:20:17;18.20;99.90
19493;DHT22;9887;54.366;10.958;2022-09-19T10:22:46;18.30;99.90
19493;DHT22;9887;54.366;10.958;2022-09-19T10:25:17;18.40;99.90
19493;DHT22;9887;54.366;10.958;2022-09-19T10:27:47;18.10;99.90
19493;DHT22;9887;54.366;10.958;2022-09-19T10:30:35;18.30;99.90
19493;DHT22;9887;54.366;10.958;2022-09-19T10:36:03;18.50;99.90
19493;DHT22;9887;54.366;10.958;2022-09-19T10:38:46;18.60;99.90
19493;DHT22;9887;54.366;10.958;2022-09-19T10:41:14;18.60;99.90
19493;DHT22;9887;54.366;10.958;2022-09-19T10:43:53;18.70;99.90
19493;DHT22;9887;54.366;10.958;2022-09-19T10:46:27;18.70;99.90
19493;DHT22;9887;54.366;10.958;2022-09-19T10:49:19;18.70;99.90
19493;DHT22;9887;54.366;10.958;2022-09-19T10:51:51;18.70;99.90
19493;DHT22;9887;54.366;10.958;2022-09-19T10:54:26;18.70;99.90
19493;DHT22;9887;54.366;10.958;2022-09-19T10:56:58;18.80;99.90
19493;DHT22;9887;54.366;10.958;2022-09-19T10:59:30;18.70;99.90
19493;DHT22;9887;54.366;10.958;2022-09-19T11:02:18;18.70;99.90
19493;DHT22;9887;54.366;10.958;2022-09-19T11:04:54;18.70;99.90
19493;DHT22;9887;54.366;10.958;2022-09-19T11:07:29;18.80;99.90
19493;DHT22;9887;54.366;10.958;2022-09-19T11:10:00;18.90;99.90
19493;DHT22;9887;54.366;10.958;2022-09-19T11:12:31;18.90;99.90
19493;DHT22;9887;54.366;10.958;2022-09-19T11:15:00;18.80;99.90
19493;DHT22;9887;54.366;10.958;2022-09-19T11:18:00;19.00;99.90
19493;DHT22;9887;54.366;10.958;2022-09-19T11:20:44;19.00;99.90
19493;DHT22;9887;54.366;10.958;2022-09-19T11:23:50;18.90;99.90
19493;DHT22;9887;54.366;10.958;2022-09-19T11:26:37;18.60;99.90
19493;DHT22;9887;54.366;10.958;2022-09-19T11:29:19;18.60;99.90
19493;DHT22;9887;54.366;10.958;2022-09-19T11:32:00;18.70;99.90
19493;DHT22;9887;54.366;10.958;2022-09-19T11:34:58;18.60;99.90
19493;DHT22;9887;54.366;10.958;2022-09-19T11:37:50;18.80;99.90
19493;DHT22;9887;54.366;10.958;2022-09-19T11:40:29;18.80;99.90
19493;DHT22;9887;54.366;10.958;2022-09-19T11:43:12;19.00;99.90
19493;DHT22;9887;54.366;10.958;2022-09-19T11:45:56;18.90;99.90
19493;DHT22;9887;54.366;10.958;2022-09-19T11:48:54;19.00;99.90
19493;DHT22;9887;54.366;10.958;2022-09-19T11:51:33;19.00;99.90
19493;DHT22;9887;54.366;10.958;2022-09-19T11:54:20;18.90;99.90
19493;DHT22;9887;54.366;10.958;2022-09-19T11:57:00;18.90;99.90
19493;DHT22;9887;54.366;10.958;2022-09-19T11:59:53;18.90;99.90
19493;DHT22;9887;54.366;10.958;2022-09-19T12:02:56;18.80;99.90
19493;DHT22;9887;54.366;10.958;2022-09-19T12:05:44;18.90;99.90
19493;DHT22;9887;54.366;10.958;2022-09-19T12:08:21;19.00;99.90
19493;DHT22;9887;54.366;10.958;2022-09-19T12:10:59;18.90;99.90
19493;DHT22;9887;54.366;10.958;2022-09-19T12:13:39;18.90;99.90
19493;DHT22;9887;54.366;10.958;2022-09-19T12:16:16;18.90;99.90
19493;DHT22;9887;54.366;10.958;2022-09-19T12:18:58;18.80;99.90
19493;DHT22;9887;54.366;10.958;2022-09-19T12:21:33;18.80;99.90
19493;DHT22;9887;54.366;10.958;2022-09-19T12:24:06;18.90;99.90
19493;DHT22;9887;54.366;10.958;2022-09-19T12:27:00;19.00;99.90
19493;DHT22;9887;54.366;10.958;2022-09-19T12:29:34;19.10;99.90
19493;DHT22;9887;54.366;10.958;2022-09-19T12:32:07;19.10;99.90
19493;DHT22;9887;54.366;10.958;2022-09-19T12:34:46;19.10;99.90
19493;DHT22;9887;54.366;10.958;2022-09-19T12:37:21;19.20;99.90
19493;DHT22;9887;54.366;10.958;2022-09-19T12:39:57;19.10;99.90
19493;DHT22;9887;54.366;10.958;2022-09-19T12:42:31;19.10;99.90
19493;DHT22;9887;54.366;10.958;2022-09-19T12:45:16;19.10;99.90
19493;DHT22;9887;54.366;10.958;2022-09-19T12:47:56;19.10;99.90
19493;DHT22;9887;54.366;10.958;2022-09-19T12:50:41;19.20;99.90
19493;DHT22;9887;54.366;10.958;2022-09-19T12:53:24;19.10;99.90
19493;DHT22;9887;54.366;10.958;2022-09-19T12:56:03;19.10;99.90
19493;DHT22;9887;54.366;10.958;2022-09-19T12:58:38;19.20;99.90
19493;DHT22;9887;54.366;10.958;2022-09-19T13:01:17;19.10;99.90
19493;DHT22;9887;54.366;10.958;2022-09-19T13:03:51;19.20;99.90
19493;DHT22;9887;54.366;10.958;2022-09-19T13:06:23;19.20;99.90
19493;DHT22;9887;54.366;10.958;2022-09-19T13:08:57;19.10;99.90
19493;DHT22;9887;54.366;10.958;2022-09-19T13:11:31;19.00;99.90
19493;DHT22;9887;54.366;10.958;2022-09-19T13:14:09;19.10;99.90
19493;DHT22;9887;54.366;10.958;2022-09-19T13:16:39;18.90;99.90
19493;DHT22;9887;54.366;10.958;2022-09-19T13:19:34;19.00;99.90
19493;DHT22;9887;54.366;10.958;2022-09-19T13:27:43;18.90;99.90
19493;DHT22;9887;54.366;10.958;2022-09-19T13:30:40;19.10;99.90
19493;DHT22;9887;54.366;10.958;2022-09-19T13:33:21;19.00;99.90
19493;DHT22;9887;54.366;10.958;2022-09-19T13:35:51;18.90;99.90
19493;DHT22;9887;54.366;10.958;2022-09-19T13:38:22;19.00;99.90
19493;DHT22;9887;54.366;10.958;2022-09-19T13:41:01;18.80;99.90
19493;DHT22;9887;54.366;10.958;2022-09-19T13:43:43;18.70;99.90
19493;DHT22;9887;54.366;10.958;2022-09-19T13:46:17;18.80;99.90
19493;DHT22;9887;54.366;10.958;2022-09-19T13:48:52;18.50;99.90
19493;DHT22;9887;54.366;10.958;2022-09-19T13:51:30;18.40;99.90
19493;DHT22;9887;54.366;10.958;2022-09-19T13:54:32;18.00;99.90
19493;DHT22;9887;54.366;10.958;2022-09-19T13:57:10;18.30;99.90
19493;DHT22;9887;54.366;10.958;2022-09-19T13:59:39;18.20;99.90
19493;DHT22;9887;54.366;10.958;2022-09-19T14:02:22;18.10;99.90
19493;DHT22;9887;54.366;10.958;2022-09-19T14:04:57;18.00;99.90
19493;DHT22;9887;54.366;10.958;2022-09-19T14:07:35;17.80;99.90
19493;DHT22;9887;54.366;10.958;2022-09-19T14:10:27;17.90;99.90
19493;DHT22;9887;54.366;10.958;2022-09-19T14:13:15;17.80;99.90
19493;DHT22;9887;54.366;10.958;2022-09-19T14:16:29;17.80;99.90
19493;DHT22;9887;54.366;10.958;2022-09-19T14:18:58;17.80;99.90
19493;DHT22;9887;54.366;10.958;2022-09-19T14:21:55;17.60;99.90
19493;DHT22;9887;54.366;10.958;2022-09-19T14:24:46;17.60;99.90
19493;DHT22;9887;54.366;10.958;2022-09-19T14:27:46;17.70;99.90
19493;DHT22;9887;54.366;10.958;2022-09-19T14:30:27;17.50;99.90
19493;DHT22;9887;54.366;10.958;2022-09-19T14:33:33;17.40;99.90
19493;DHT22;9887;54.366;10.958;2022-09-19T14:36:32;17.30;99.90
19493;DHT22;9887;54.366;10.958;2022-09-19T14:41:51;17.00;99.90
19493;DHT22;9887;54.366;10.958;2022-09-19T14:47:37;17.20;99.90
19493;DHT22;9887;54.366;10.958;2022-09-19T14:50:14;17.00;99.90
19493;DHT22;9887;54.366;10.958;2022-09-19T14:52:52;17.00;99.90
19493;DHT22;9887;54.366;10.958;2022-09-19T14:55:27;16.90;99.90
19493;DHT22;9887;54.366;10.958;2022-09-19T14:57:55;16.80;99.90
19493;DHT22;9887;54.366;10.958;2022-09-19T15:00:27;16.70;99.90
19493;DHT22;9887;54.366;10.958;2022-09-19T15:02:56;16.70;99.90
19493;DHT22;9887;54.366;10.958;2022-09-19T15:05:30;16.70;99.90
19493;DHT22;9887;54.366;10.958;2022-09-19T15:08:12;16.60;99.90
19493;DHT22;9887;54.366;10.958;2022-09-19T15:10:40;16.70;99.90
19493;DHT22;9887;54.366;10.958;2022-09-19T15:13:18;16.60;99.90
19493;DHT22;9887;54.366;10.958;2022-09-19T15:15:50;16.60;99.90
19493;DHT22;9887;54.366;10.958;2022-09-19T15:18:21;16.40;99.90
19493;DHT22;9887;54.366;10.958;2022-09-19T15:20:55;16.40;99.90
19493;DHT22;9887;54.366;10.958;2022-09-19T15:23:26;16.50;99.90
19493;DHT22;9887;54.366;10.958;2022-09-19T15:25:57;16.40;99.90
19493;DHT22;9887;54.366;10.958;2022-09-19T15:28:27;16.30;99.90
19493;DHT22;9887;54.366;10.958;2022-09-19T15:30:56;16.20;99.90
19493;DHT22;9887;54.366;10.958;2022-09-19T15:33:27;16.20;99.90
19493;DHT22;9887;54.366;10.958;2022-09-19T15:35:59;16.20;99.90
19493;DHT22;9887;54.366;10.958;2022-09-19T15:38:29;16.20;99.90
19493;DHT22;9887;54.366;10.958;2022-09-19T15:40:59;16.20;99.90
19493;DHT22;9887;54.366;10.958;2022-09-19T15:43:28;16.20;99.90
19493;DHT22;9887;54.366;10.958;2022-09-19T15:45:57;16.10;99.90
19493;DHT22;9887;54.366;10.958;2022-09-19T15:48:31;16.10;99.90
19493;DHT22;9887;54.366;10.958;2022-09-19T15:51:03;16.10;99.90
19493;DHT22;9887;54.366;10.958;2022-09-19T15:53:35;16.00;99.90
19493;DHT22;9887;54.366;10.958;2022-09-19T15:56:06;16.00;99.90
19493;DHT22;9887;54.366;10.958;2022-09-19T15:58:43;16.00;99.90
19493;DHT22;9887;54.366;10.958;2022-09-19T16:01:17;16.00;99.90
19493;DHT22;9887;54.366;10.958;2022-09-19T16:03:55;16.00;99.90
19493;DHT22;9887;54.366;10.958;2022-09-19T16:06:31;15.90;99.90
19493;DHT22;9887;54.366;10.958;2022-09-19T16:09:20;15.90;99.90
19493;DHT22;9887;54.366;10.958;2022-09-19T16:11:57;15.90;99.90
19493;DHT22;9887;54.366;10.958;2022-09-19T16:14:27;15.90;99.90
19493;DHT22;9887;54.366;10.958;2022-09-19T16:16:55;15.80;99.90
19493;DHT22;9887;54.366;10.958;2022-09-19T16:19:42;15.80;99.90
19493;DHT22;9887;54.366;10.958;2022-09-19T16:22:14;15.80;99.90
19493;DHT22;9887;54.366;10.958;2022-09-19T16:24:47;15.60;99.90
19493;DHT22;9887;54.366;10.958;2022-09-19T16:27:21;15.10;99.90
19493;DHT22;9887;54.366;10.958;2022-09-19T16:32:20;14.70;99.90
19493;DHT22;9887;54.366;10.958;2022-09-19T16:34:50;14.60;99.90
19493;DHT22;9887;54.366;10.958;2022-09-19T16:37:29;14.40;99.90
19493;DHT22;9887;54.366;10.958;2022-09-19T16:39:59;14.30;99.90
19493;DHT22;9887;54.366;10.958;2022-09-19T16:42:29;14.10;99.90
19493;DHT22;9887;54.366;10.958;2022-09-19T16:45:12;14.10;99.90
19493;DHT22;9887;54.366;10.958;2022-09-19T16:47:40;14.20;99.90